Station Historical Data
Daily Summary for January 23, 2017 Units:  Both    English   Metric
« Previous Day
Next Day »
Daily Weekly Monthly Yearly Custom
  High: Low: Average:
Temperature: 46.3 °F /  7.9 °C 34.4 °F /  1.3 °C 39.3 °F /  4.1 °C
Dew Point: 42.0 °F /  5.6 °C 28.1 °F /  -2.2 °C 35.8 °F /  2.1 °C
Humidity: 96% 76% 87%
Wind Speed: 16.0mph /  25.7km/h - 7mph /  11.3km/h
Wind Gust: 20.0mph /  32.2km/h - -
Wind- - NE
Pressure: 29.77 in /  1008 hPa 29.68 in /  1005 hPa -
Precipitation: 0.00 in /  0 mm    
Historical Graphs
 
 
Tabular Data for January 23, 2017
Time Temperature Dew Point Pressure Wind Wind Speed Wind Gust Humidity Rainfall Rate (Hourly)
00:04 37.1 °F /  2.8 °C 35.8 °F /  2.1 °C 29.72in /  1006.3hPa ENE 7.0mph /  11.3km/h 14.0mph /  22.5km/h 95% 0.00in /  0mm
00:09 37.1 °F /  2.8 °C 35.8 °F /  2.1 °C 29.72in /  1006.3hPa NE 8.0mph /  12.9km/h 14.0mph /  22.5km/h 95% 0.00in /  0mm
00:14 37.0 °F /  2.8 °C 35.7 °F /  2.1 °C 29.72in /  1006.3hPa NE 7.0mph /  11.3km/h 13.0mph /  20.9km/h 95% 0.00in /  0mm
00:19 37.0 °F /  2.8 °C 35.7 °F /  2.1 °C 29.72in /  1006.3hPa East 6.0mph /  9.7km/h 12.0mph /  19.3km/h 95% 0.00in /  0mm
00:24 37.0 °F /  2.8 °C 35.7 °F /  2.1 °C 29.72in /  1006.3hPa ENE 11.0mph /  17.7km/h 15.0mph /  24.1km/h 95% 0.00in /  0mm
00:29 36.9 °F /  2.7 °C 35.6 °F /  2 °C 29.72in /  1006.3hPa ESE 4.0mph /  6.4km/h 13.0mph /  20.9km/h 95% 0.00in /  0mm
00:34 36.9 °F /  2.7 °C 35.6 °F /  2 °C 29.72in /  1006.3hPa NE 8.0mph /  12.9km/h 13.0mph /  20.9km/h 95% 0.00in /  0mm
00:39 36.9 °F /  2.7 °C 35.6 °F /  2 °C 29.72in /  1006.3hPa NE 8.0mph /  12.9km/h 12.0mph /  19.3km/h 95% 0.00in /  0mm
00:44 36.8 °F /  2.7 °C 35.5 °F /  1.9 °C 29.72in /  1006.3hPa NE 9.0mph /  14.5km/h 14.0mph /  22.5km/h 95% 0.00in /  0mm
00:49 36.8 °F /  2.7 °C 35.5 °F /  1.9 °C 29.72in /  1006.3hPa NNE 4.0mph /  6.4km/h 12.0mph /  19.3km/h 95% 0.00in /  0mm
00:54 36.8 °F /  2.7 °C 35.5 °F /  1.9 °C 29.72in /  1006.3hPa NE 8.0mph /  12.9km/h 13.0mph /  20.9km/h 95% 0.00in /  0mm
00:59 36.8 °F /  2.7 °C 35.5 °F /  1.9 °C 29.73in /  1006.7hPa ENE 3.0mph /  4.8km/h 11.0mph /  17.7km/h 95% 0.00in /  0mm
01:04 36.8 °F /  2.7 °C 35.5 °F /  1.9 °C 29.73in /  1006.7hPa ENE 6.0mph /  9.7km/h 15.0mph /  24.1km/h 95% 0.00in /  0mm
01:09 36.8 °F /  2.7 °C 35.5 °F /  1.9 °C 29.73in /  1006.7hPa ENE 5.0mph /  8km/h 15.0mph /  24.1km/h 95% 0.00in /  0mm
01:14 36.8 °F /  2.7 °C 35.5 °F /  1.9 °C 29.73in /  1006.7hPa ENE 5.0mph /  8km/h 10.0mph /  16.1km/h 95% 0.00in /  0mm
01:19 36.8 °F /  2.7 °C 35.5 °F /  1.9 °C 29.73in /  1006.7hPa ENE 3.0mph /  4.8km/h 15.0mph /  24.1km/h 95% 0.00in /  0mm
01:24 36.8 °F /  2.7 °C 35.5 °F /  1.9 °C 29.74in /  1007hPa NE 6.0mph /  9.7km/h 10.0mph /  16.1km/h 95% 0.00in /  0mm
01:29 36.8 °F /  2.7 °C 35.5 °F /  1.9 °C 29.73in /  1006.7hPa NE 8.0mph /  12.9km/h 15.0mph /  24.1km/h 95% 0.00in /  0mm
01:34 36.8 °F /  2.7 °C 35.5 °F /  1.9 °C 29.74in /  1007hPa East 8.0mph /  12.9km/h 13.0mph /  20.9km/h 95% 0.00in /  0mm
01:39 36.8 °F /  2.7 °C 35.5 °F /  1.9 °C 29.74in /  1007hPa ENE 7.0mph /  11.3km/h 15.0mph /  24.1km/h 95% 0.00in /  0mm
01:44 36.8 °F /  2.7 °C 35.5 °F /  1.9 °C 29.73in /  1006.7hPa ENE 7.0mph /  11.3km/h 15.0mph /  24.1km/h 95% 0.00in /  0mm
01:49 36.8 °F /  2.7 °C 35.5 °F /  1.9 °C 29.73in /  1006.7hPa ENE 7.0mph /  11.3km/h 15.0mph /  24.1km/h 95% 0.00in /  0mm
01:54 36.7 °F /  2.6 °C 35.4 °F /  1.9 °C 29.73in /  1006.7hPa NE 5.0mph /  8km/h 14.0mph /  22.5km/h 95% 0.00in /  0mm
01:59 36.8 °F /  2.7 °C 35.5 °F /  1.9 °C 29.73in /  1006.7hPa NE 5.0mph /  8km/h 13.0mph /  20.9km/h 95% 0.00in /  0mm
02:04 36.7 °F /  2.6 °C 35.4 °F /  1.9 °C 29.73in /  1006.7hPa NE 10.0mph /  16.1km/h 14.0mph /  22.5km/h 95% 0.00in /  0mm
02:09 36.7 °F /  2.6 °C 35.4 °F /  1.9 °C 29.74in /  1007hPa ENE 7.0mph /  11.3km/h 14.0mph /  22.5km/h 95% 0.00in /  0mm
02:14 36.7 °F /  2.6 °C 35.4 °F /  1.9 °C 29.73in /  1006.7hPa ENE 6.0mph /  9.7km/h 14.0mph /  22.5km/h 95% 0.00in /  0mm
02:19 36.7 °F /  2.6 °C 35.4 °F /  1.9 °C 29.73in /  1006.7hPa ENE 7.0mph /  11.3km/h 13.0mph /  20.9km/h 95% 0.00in /  0mm
02:24 36.7 °F /  2.6 °C 35.4 °F /  1.9 °C 29.73in /  1006.7hPa NE 7.0mph /  11.3km/h 13.0mph /  20.9km/h 95% 0.00in /  0mm
02:29 36.7 °F /  2.6 °C 35.4 °F /  1.9 °C 29.73in /  1006.7hPa NE 6.0mph /  9.7km/h 13.0mph /  20.9km/h 95% 0.00in /  0mm
02:34 36.7 °F /  2.6 °C 35.4 °F /  1.9 °C 29.73in /  1006.7hPa East 3.0mph /  4.8km/h 11.0mph /  17.7km/h 95% 0.00in /  0mm
02:39 36.7 °F /  2.6 °C 35.4 °F /  1.9 °C 29.74in /  1007hPa ENE 7.0mph /  11.3km/h 11.0mph /  17.7km/h 95% 0.00in /  0mm
02:44 36.8 °F /  2.7 °C 35.5 °F /  1.9 °C 29.74in /  1007hPa NE 7.0mph /  11.3km/h 13.0mph /  20.9km/h 95% 0.00in /  0mm
02:49 36.8 °F /  2.7 °C 35.5 °F /  1.9 °C 29.74in /  1007hPa NE 7.0mph /  11.3km/h 13.0mph /  20.9km/h 95% 0.00in /  0mm
02:54 36.9 °F /  2.7 °C 35.6 °F /  2 °C 29.74in /  1007hPa ENE 7.0mph /  11.3km/h 14.0mph /  22.5km/h 95% 0.00in /  0mm
02:59 36.9 °F /  2.7 °C 35.6 °F /  2 °C 29.74in /  1007hPa NE 9.0mph /  14.5km/h 14.0mph /  22.5km/h 95% 0.00in /  0mm
03:04 36.9 °F /  2.7 °C 35.6 °F /  2 °C 29.73in /  1006.7hPa NE 5.0mph /  8km/h 14.0mph /  22.5km/h 95% 0.00in /  0mm
03:09 36.9 °F /  2.7 °C 35.6 °F /  2 °C 29.73in /  1006.7hPa NE 9.0mph /  14.5km/h 14.0mph /  22.5km/h 95% 0.00in /  0mm
03:14 37.0 °F /  2.8 °C 35.7 °F /  2.1 °C 29.73in /  1006.7hPa NE 8.0mph /  12.9km/h 14.0mph /  22.5km/h 95% 0.00in /  0mm
03:19 36.9 °F /  2.7 °C 35.6 °F /  2 °C 29.73in /  1006.7hPa NE 7.0mph /  11.3km/h 14.0mph /  22.5km/h 95% 0.00in /  0mm
03:24 37.0 °F /  2.8 °C 35.7 °F /  2.1 °C 29.73in /  1006.7hPa ENE 11.0mph /  17.7km/h 14.0mph /  22.5km/h 95% 0.00in /  0mm
03:29 37.0 °F /  2.8 °C 35.7 °F /  2.1 °C 29.73in /  1006.7hPa NE 9.0mph /  14.5km/h 13.0mph /  20.9km/h 95% 0.00in /  0mm
03:34 37.0 °F /  2.8 °C 35.7 °F /  2.1 °C 29.73in /  1006.7hPa NNE 8.0mph /  12.9km/h 12.0mph /  19.3km/h 95% 0.00in /  0mm
03:39 37.0 °F /  2.8 °C 35.7 °F /  2.1 °C 29.73in /  1006.7hPa ESE 10.0mph /  16.1km/h 13.0mph /  20.9km/h 95% 0.00in /  0mm
03:44 37.0 °F /  2.8 °C 35.7 °F /  2.1 °C 29.73in /  1006.7hPa NE 7.0mph /  11.3km/h 13.0mph /  20.9km/h 95% 0.00in /  0mm
03:49 37.1 °F /  2.8 °C 35.8 °F /  2.1 °C 29.72in /  1006.3hPa NE 6.0mph /  9.7km/h 12.0mph /  19.3km/h 95% 0.00in /  0mm
03:54 37.1 °F /  2.8 °C 35.8 °F /  2.1 °C 29.73in /  1006.7hPa NE 6.0mph /  9.7km/h 12.0mph /  19.3km/h 95% 0.00in /  0mm
03:59 37.1 °F /  2.8 °C 35.8 °F /  2.1 °C 29.72in /  1006.3hPa NE 6.0mph /  9.7km/h 15.0mph /  24.1km/h 95% 0.00in /  0mm
04:04 37.1 °F /  2.8 °C 35.8 °F /  2.1 °C 29.73in /  1006.7hPa NE 7.0mph /  11.3km/h 12.0mph /  19.3km/h 95% 0.00in /  0mm
04:09 37.2 °F /  2.9 °C 35.9 °F /  2.2 °C 29.73in /  1006.7hPa ENE 10.0mph /  16.1km/h 12.0mph /  19.3km/h 95% 0.00in /  0mm
04:14 37.2 °F /  2.9 °C 35.9 °F /  2.2 °C 29.73in /  1006.7hPa NE 6.0mph /  9.7km/h 12.0mph /  19.3km/h 95% 0.00in /  0mm
04:19 37.2 °F /  2.9 °C 35.9 °F /  2.2 °C 29.73in /  1006.7hPa ENE 6.0mph /  9.7km/h 10.0mph /  16.1km/h 95% 0.00in /  0mm
04:24 37.2 °F /  2.9 °C 35.9 °F /  2.2 °C 29.73in /  1006.7hPa NNE 6.0mph /  9.7km/h 11.0mph /  17.7km/h 95% 0.00in /  0mm
04:29 37.3 °F /  2.9 °C 36.0 °F /  2.2 °C 29.73in /  1006.7hPa ENE 7.0mph /  11.3km/h 13.0mph /  20.9km/h 95% 0.00in /  0mm
04:34 37.3 °F /  2.9 °C 36.0 °F /  2.2 °C 29.73in /  1006.7hPa East 5.0mph /  8km/h 12.0mph /  19.3km/h 95% 0.00in /  0mm
04:40 37.3 °F /  2.9 °C 36.0 °F /  2.2 °C 29.73in /  1006.7hPa NE 6.0mph /  9.7km/h 13.0mph /  20.9km/h 95% 0.00in /  0mm
04:45 37.3 °F /  2.9 °C 36.0 °F /  2.2 °C 29.72in /  1006.3hPa NE 6.0mph /  9.7km/h 13.0mph /  20.9km/h 95% 0.00in /  0mm
04:54 37.4 °F /  3 °C 36.1 °F /  2.3 °C 29.72in /  1006.3hPa NE 7.0mph /  11.3km/h 14.0mph /  22.5km/h 95% 0.00in /  0mm
04:59 37.4 °F /  3 °C 36.1 °F /  2.3 °C 29.72in /  1006.3hPa NE 7.0mph /  11.3km/h 13.0mph /  20.9km/h 95% 0.00in /  0mm
05:04 37.4 °F /  3 °C 36.1 °F /  2.3 °C 29.72in /  1006.3hPa NE 7.0mph /  11.3km/h 15.0mph /  24.1km/h 95% 0.00in /  0mm
05:09 37.4 °F /  3 °C 36.1 °F /  2.3 °C 29.72in /  1006.3hPa NE 7.0mph /  11.3km/h 15.0mph /  24.1km/h 95% 0.00in /  0mm
05:14 37.4 °F /  3 °C 36.1 °F /  2.3 °C 29.72in /  1006.3hPa NE 4.0mph /  6.4km/h 14.0mph /  22.5km/h 95% 0.00in /  0mm
05:19 37.4 °F /  3 °C 36.1 °F /  2.3 °C 29.72in /  1006.3hPa East 16.0mph /  25.7km/h 16.0mph /  25.7km/h 95% 0.00in /  0mm
05:24 37.5 °F /  3.1 °C 36.2 °F /  2.3 °C 29.72in /  1006.3hPa NE 9.0mph /  14.5km/h 16.0mph /  25.7km/h 95% 0.00in /  0mm
05:29 37.5 °F /  3.1 °C 36.5 °F /  2.5 °C 29.72in /  1006.3hPa NE 11.0mph /  17.7km/h 14.0mph /  22.5km/h 96% 0.00in /  0mm
05:34 37.5 °F /  3.1 °C 36.5 °F /  2.5 °C 29.72in /  1006.3hPa ENE 9.0mph /  14.5km/h 14.0mph /  22.5km/h 96% 0.00in /  0mm
05:39 37.5 °F /  3.1 °C 36.5 °F /  2.5 °C 29.73in /  1006.7hPa SE 9.0mph /  14.5km/h 15.0mph /  24.1km/h 96% 0.00in /  0mm
05:44 37.5 °F /  3.1 °C 36.2 °F /  2.3 °C 29.73in /  1006.7hPa ENE 6.0mph /  9.7km/h 15.0mph /  24.1km/h 95% 0.00in /  0mm
05:49 37.7 °F /  3.2 °C 36.4 °F /  2.4 °C 29.73in /  1006.7hPa ENE 5.0mph /  8km/h 13.0mph /  20.9km/h 95% 0.00in /  0mm
05:54 37.7 °F /  3.2 °C 36.4 °F /  2.4 °C 29.73in /  1006.7hPa ENE 6.0mph /  9.7km/h 13.0mph /  20.9km/h 95% 0.00in /  0mm
05:59 37.7 °F /  3.2 °C 36.4 °F /  2.4 °C 29.73in /  1006.7hPa ENE 6.0mph /  9.7km/h 15.0mph /  24.1km/h 95% 0.00in /  0mm
06:04 37.7 °F /  3.2 °C 36.4 °F /  2.4 °C 29.72in /  1006.3hPa ENE 6.0mph /  9.7km/h 15.0mph /  24.1km/h 95% 0.00in /  0mm
06:09 37.7 °F /  3.2 °C 36.4 °F /  2.4 °C 29.72in /  1006.3hPa NNE 5.0mph /  8km/h 12.0mph /  19.3km/h 95% 0.00in /  0mm
06:14 37.8 °F /  3.2 °C 36.5 °F /  2.5 °C 29.73in /  1006.7hPa NE 7.0mph /  11.3km/h 12.0mph /  19.3km/h 95% 0.00in /  0mm
06:19 37.8 °F /  3.2 °C 36.5 °F /  2.5 °C 29.73in /  1006.7hPa NE 4.0mph /  6.4km/h 11.0mph /  17.7km/h 95% 0.00in /  0mm
06:24 37.8 °F /  3.2 °C 36.5 °F /  2.5 °C 29.74in /  1007hPa NE 7.0mph /  11.3km/h 15.0mph /  24.1km/h 95% 0.00in /  0mm
06:29 37.9 °F /  3.3 °C 36.6 °F /  2.6 °C 29.74in /  1007hPa ENE 10.0mph /  16.1km/h 14.0mph /  22.5km/h 95% 0.00in /  0mm
06:34 37.9 °F /  3.3 °C 36.9 °F /  2.7 °C 29.74in /  1007hPa NNE 6.0mph /  9.7km/h 10.0mph /  16.1km/h 96% 0.00in /  0mm
06:39 38.0 °F /  3.3 °C 37.0 °F /  2.8 °C 29.74in /  1007hPa NE 9.0mph /  14.5km/h 11.0mph /  17.7km/h 96% 0.00in /  0mm
06:44 38.0 °F /  3.3 °C 37.0 °F /  2.8 °C 29.74in /  1007hPa ENE 5.0mph /  8km/h 12.0mph /  19.3km/h 96% 0.00in /  0mm
06:49 38.0 °F /  3.3 °C 37.0 °F /  2.8 °C 29.74in /  1007hPa NE 7.0mph /  11.3km/h 12.0mph /  19.3km/h 96% 0.00in /  0mm
06:54 38.0 °F /  3.3 °C 37.0 °F /  2.8 °C 29.74in /  1007hPa NE 7.0mph /  11.3km/h 12.0mph /  19.3km/h 96% 0.00in /  0mm
06:59 38.1 °F /  3.4 °C 37.1 °F /  2.8 °C 29.74in /  1007hPa NE 7.0mph /  11.3km/h 13.0mph /  20.9km/h 96% 0.00in /  0mm
07:04 38.1 °F /  3.4 °C 37.1 °F /  2.8 °C 29.74in /  1007hPa NE 7.0mph /  11.3km/h 14.0mph /  22.5km/h 96% 0.00in /  0mm
07:09 38.1 °F /  3.4 °C 37.1 °F /  2.8 °C 29.74in /  1007hPa North 4.0mph /  6.4km/h 11.0mph /  17.7km/h 96% 0.00in /  0mm
07:14 38.1 °F /  3.4 °C 37.1 °F /  2.8 °C 29.73in /  1006.7hPa NE 8.0mph /  12.9km/h 11.0mph /  17.7km/h 96% 0.00in /  0mm
07:19 38.1 °F /  3.4 °C 37.1 °F /  2.8 °C 29.74in /  1007hPa ENE 9.0mph /  14.5km/h 13.0mph /  20.9km/h 96% 0.00in /  0mm
07:24 38.1 °F /  3.4 °C 37.1 °F /  2.8 °C 29.74in /  1007hPa NE 4.0mph /  6.4km/h 11.0mph /  17.7km/h 96% 0.00in /  0mm
07:29 38.2 °F /  3.4 °C 37.2 °F /  2.9 °C 29.74in /  1007hPa NE 4.0mph /  6.4km/h 10.0mph /  16.1km/h 96% 0.00in /  0mm
07:34 38.2 °F /  3.4 °C 37.2 °F /  2.9 °C 29.74in /  1007hPa NE 6.0mph /  9.7km/h 13.0mph /  20.9km/h 96% 0.00in /  0mm
07:39 38.3 °F /  3.5 °C 37.3 °F /  2.9 °C 29.74in /  1007hPa East 7.0mph /  11.3km/h 11.0mph /  17.7km/h 96% 0.00in /  0mm
07:44 38.3 °F /  3.5 °C 37.3 °F /  2.9 °C 29.74in /  1007hPa NE 4.0mph /  6.4km/h 11.0mph /  17.7km/h 96% 0.00in /  0mm
07:49 38.4 °F /  3.6 °C 37.4 °F /  3 °C 29.74in /  1007hPa NE 6.0mph /  9.7km/h 12.0mph /  19.3km/h 96% 0.00in /  0mm
07:54 38.5 °F /  3.6 °C 37.5 °F /  3.1 °C 29.74in /  1007hPa NE 6.0mph /  9.7km/h 12.0mph /  19.3km/h 96% 0.00in /  0mm
07:59 38.5 °F /  3.6 °C 37.5 °F /  3.1 °C 29.74in /  1007hPa NE 6.0mph /  9.7km/h 12.0mph /  19.3km/h 96% 0.00in /  0mm
08:04 38.6 °F /  3.7 °C 37.6 °F /  3.1 °C 29.74in /  1007hPa NE 6.0mph /  9.7km/h 14.0mph /  22.5km/h 96% 0.00in /  0mm
08:09 38.8 °F /  3.8 °C 37.8 °F /  3.2 °C 29.74in /  1007hPa NE 9.0mph /  14.5km/h 15.0mph /  24.1km/h 96% 0.00in /  0mm
08:14 38.8 °F /  3.8 °C 37.8 °F /  3.2 °C 29.73in /  1006.7hPa NE 7.0mph /  11.3km/h 15.0mph /  24.1km/h 96% 0.00in /  0mm
08:19 38.9 °F /  3.8 °C 37.9 °F /  3.3 °C 29.74in /  1007hPa NE 8.0mph /  12.9km/h 16.0mph /  25.7km/h 96% 0.00in /  0mm
08:24 38.9 °F /  3.8 °C 37.9 °F /  3.3 °C 29.74in /  1007hPa ENE 8.0mph /  12.9km/h 11.0mph /  17.7km/h 96% 0.00in /  0mm
08:29 39.0 °F /  3.9 °C 38.0 °F /  3.3 °C 29.74in /  1007hPa NE 6.0mph /  9.7km/h 12.0mph /  19.3km/h 96% 0.00in /  0mm
08:34 39.1 °F /  3.9 °C 38.1 °F /  3.4 °C 29.75in /  1007.3hPa NE 4.0mph /  6.4km/h 10.0mph /  16.1km/h 96% 0.00in /  0mm
08:39 39.3 °F /  4.1 °C 38.3 °F /  3.5 °C 29.75in /  1007.3hPa NE 7.0mph /  11.3km/h 11.0mph /  17.7km/h 96% 0.00in /  0mm
08:44 39.4 °F /  4.1 °C 38.4 °F /  3.6 °C 29.75in /  1007.3hPa NE 5.0mph /  8km/h 9.0mph /  14.5km/h 96% 0.00in /  0mm
08:49 39.6 °F /  4.2 °C 38.6 °F /  3.7 °C 29.75in /  1007.3hPa NE 5.0mph /  8km/h 9.0mph /  14.5km/h 96% 0.00in /  0mm
08:54 39.7 °F /  4.3 °C 38.7 °F /  3.7 °C 29.76in /  1007.7hPa NE 5.0mph /  8km/h 9.0mph /  14.5km/h 96% 0.00in /  0mm
08:59 39.9 °F /  4.4 °C 38.9 °F /  3.8 °C 29.76in /  1007.7hPa ENE 4.0mph /  6.4km/h 9.0mph /  14.5km/h 96% 0.00in /  0mm
09:04 40.0 °F /  4.4 °C 39.0 °F /  3.9 °C 29.76in /  1007.7hPa ENE 5.0mph /  8km/h 9.0mph /  14.5km/h 96% 0.00in /  0mm
09:09 40.2 °F /  4.6 °C 39.2 °F /  4 °C 29.76in /  1007.7hPa NE 6.0mph /  9.7km/h 10.0mph /  16.1km/h 96% 0.00in /  0mm
09:14 40.3 °F /  4.6 °C 39.3 °F /  4.1 °C 29.76in /  1007.7hPa ENE 4.0mph /  6.4km/h 10.0mph /  16.1km/h 96% 0.00in /  0mm
09:19 40.4 °F /  4.7 °C 39.4 °F /  4.1 °C 29.76in /  1007.7hPa NNE 4.0mph /  6.4km/h 9.0mph /  14.5km/h 96% 0.00in /  0mm
09:24 40.6 °F /  4.8 °C 39.5 °F /  4.2 °C 29.76in /  1007.7hPa NE 5.0mph /  8km/h 10.0mph /  16.1km/h 96% 0.00in /  0mm
09:29 40.9 °F /  4.9 °C 39.6 °F /  4.2 °C 29.76in /  1007.7hPa NE 6.0mph /  9.7km/h 11.0mph /  17.7km/h 95% 0.00in /  0mm
09:34 41.2 °F /  5.1 °C 39.9 °F /  4.4 °C 29.76in /  1007.7hPa NE 6.0mph /  9.7km/h 11.0mph /  17.7km/h 95% 0.00in /  0mm
09:39 41.5 °F /  5.3 °C 40.2 °F /  4.6 °C 29.76in /  1007.7hPa ENE 5.0mph /  8km/h 10.0mph /  16.1km/h 95% 0.00in /  0mm
09:44 41.8 °F /  5.4 °C 40.5 °F /  4.7 °C 29.76in /  1007.7hPa NNE 3.0mph /  4.8km/h 12.0mph /  19.3km/h 95% 0.00in /  0mm
09:49 42.2 °F /  5.7 °C 40.6 °F /  4.8 °C 29.76in /  1007.7hPa NE 6.0mph /  9.7km/h 12.0mph /  19.3km/h 94% 0.00in /  0mm
09:54 42.3 °F /  5.7 °C 40.4 °F /  4.7 °C 29.76in /  1007.7hPa NE 6.0mph /  9.7km/h 11.0mph /  17.7km/h 93% 0.00in /  0mm
09:59 42.5 °F /  5.8 °C 40.6 °F /  4.8 °C 29.76in /  1007.7hPa NE 6.0mph /  9.7km/h 13.0mph /  20.9km/h 93% 0.00in /  0mm
10:04 42.8 °F /  6 °C 40.6 °F /  4.8 °C 29.76in /  1007.7hPa NE 6.0mph /  9.7km/h 16.0mph /  25.7km/h 92% 0.00in /  0mm
10:09 42.8 °F /  6 °C 40.6 °F /  4.8 °C 29.76in /  1007.7hPa ENE 2.0mph /  3.2km/h 14.0mph /  22.5km/h 92% 0.00in /  0mm
10:14 42.9 °F /  6.1 °C 40.5 °F /  4.7 °C 29.76in /  1007.7hPa ENE 8.0mph /  12.9km/h 12.0mph /  19.3km/h 91% 0.00in /  0mm
10:19 42.8 °F /  6 °C 40.4 °F /  4.7 °C 29.76in /  1007.7hPa NE 4.0mph /  6.4km/h 10.0mph /  16.1km/h 91% 0.00in /  0mm
10:24 42.7 °F /  5.9 °C 40.3 °F /  4.6 °C 29.76in /  1007.7hPa NNE 3.0mph /  4.8km/h 11.0mph /  17.7km/h 91% 0.00in /  0mm
10:29 42.6 °F /  5.9 °C 40.4 °F /  4.7 °C 29.76in /  1007.7hPa NE 4.0mph /  6.4km/h 11.0mph /  17.7km/h 92% 0.00in /  0mm
10:34 42.6 °F /  5.9 °C 40.4 °F /  4.7 °C 29.76in /  1007.7hPa NE 5.0mph /  8km/h 11.0mph /  17.7km/h 92% 0.00in /  0mm
10:39 42.7 °F /  5.9 °C 40.5 °F /  4.7 °C 29.76in /  1007.7hPa NE 5.0mph /  8km/h 13.0mph /  20.9km/h 92% 0.00in /  0mm
10:44 42.7 °F /  5.9 °C 40.3 °F /  4.6 °C 29.76in /  1007.7hPa East 6.0mph /  9.7km/h 10.0mph /  16.1km/h 91% 0.00in /  0mm
10:49 42.7 °F /  5.9 °C 40.5 °F /  4.7 °C 29.76in /  1007.7hPa ENE 5.0mph /  8km/h 11.0mph /  17.7km/h 92% 0.00in /  0mm
10:54 42.9 °F /  6.1 °C 40.5 °F /  4.7 °C 29.76in /  1007.7hPa NE 6.0mph /  9.7km/h 11.0mph /  17.7km/h 91% 0.00in /  0mm
10:59 43.1 °F /  6.2 °C 40.7 °F /  4.8 °C 29.76in /  1007.7hPa NE 6.0mph /  9.7km/h 12.0mph /  19.3km/h 91% 0.00in /  0mm
11:04 43.3 °F /  6.3 °C 40.8 °F /  4.9 °C 29.76in /  1007.7hPa NE 6.0mph /  9.7km/h 12.0mph /  19.3km/h 91% 0.00in /  0mm
11:09 43.5 °F /  6.4 °C 41.0 °F /  5 °C 29.75in /  1007.3hPa NE 6.0mph /  9.7km/h 11.0mph /  17.7km/h 91% 0.00in /  0mm
11:14 43.7 °F /  6.5 °C 41.0 °F /  5 °C 29.75in /  1007.3hPa NE 7.0mph /  11.3km/h 13.0mph /  20.9km/h 90% 0.00in /  0mm
11:19 44.1 °F /  6.7 °C 41.4 °F /  5.2 °C 29.75in /  1007.3hPa NE 7.0mph /  11.3km/h 13.0mph /  20.9km/h 90% 0.00in /  0mm
11:24 44.4 °F /  6.9 °C 41.7 °F /  5.4 °C 29.75in /  1007.3hPa NE 6.0mph /  9.7km/h 15.0mph /  24.1km/h 90% 0.00in /  0mm
11:29 44.8 °F /  7.1 °C 41.8 °F /  5.4 °C 29.75in /  1007.3hPa NNE 6.0mph /  9.7km/h 15.0mph /  24.1km/h 89% 0.00in /  0mm
11:34 45.2 °F /  7.3 °C 41.9 °F /  5.5 °C 29.75in /  1007.3hPa NE 7.0mph /  11.3km/h 15.0mph /  24.1km/h 88% 0.00in /  0mm
11:39 45.2 °F /  7.3 °C 41.9 °F /  5.5 °C 29.75in /  1007.3hPa NE 8.0mph /  12.9km/h 13.0mph /  20.9km/h 88% 0.00in /  0mm
11:44 45.3 °F /  7.4 °C 42.0 °F /  5.6 °C 29.74in /  1007hPa NE 7.0mph /  11.3km/h 13.0mph /  20.9km/h 88% 0.00in /  0mm
11:49 45.2 °F /  7.3 °C 41.9 °F /  5.5 °C 29.74in /  1007hPa NE 7.0mph /  11.3km/h 13.0mph /  20.9km/h 88% 0.00in /  0mm
11:54 45.2 °F /  7.3 °C 41.9 °F /  5.5 °C 29.73in /  1006.7hPa NNE 4.0mph /  6.4km/h 12.0mph /  19.3km/h 88% 0.00in /  0mm
11:59 45.1 °F /  7.3 °C 41.5 °F /  5.3 °C 29.73in /  1006.7hPa NE 7.0mph /  11.3km/h 13.0mph /  20.9km/h 87% 0.00in /  0mm
12:04 45.3 °F /  7.4 °C 41.7 °F /  5.4 °C 29.73in /  1006.7hPa NNE 4.0mph /  6.4km/h 12.0mph /  19.3km/h 87% 0.00in /  0mm
12:09 45.4 °F /  7.4 °C 41.8 °F /  5.4 °C 29.73in /  1006.7hPa NE 6.0mph /  9.7km/h 12.0mph /  19.3km/h 87% 0.00in /  0mm
12:14 45.4 °F /  7.4 °C 41.5 °F /  5.3 °C 29.73in /  1006.7hPa NE 6.0mph /  9.7km/h 14.0mph /  22.5km/h 86% 0.00in /  0mm
12:19 45.3 °F /  7.4 °C 41.4 °F /  5.2 °C 29.73in /  1006.7hPa NE 7.0mph /  11.3km/h 14.0mph /  22.5km/h 86% 0.00in /  0mm
12:24 45.6 °F /  7.6 °C 41.7 °F /  5.4 °C 29.73in /  1006.7hPa NE 7.0mph /  11.3km/h 14.0mph /  22.5km/h 86% 0.00in /  0mm
12:29 45.7 °F /  7.6 °C 41.4 °F /  5.2 °C 29.72in /  1006.3hPa NE 6.0mph /  9.7km/h 13.0mph /  20.9km/h 85% 0.00in /  0mm
12:34 46.2 °F /  7.9 °C 41.9 °F /  5.5 °C 29.72in /  1006.3hPa NE 6.0mph /  9.7km/h 11.0mph /  17.7km/h 85% 0.00in /  0mm
12:39 46.3 °F /  7.9 °C 41.7 °F /  5.4 °C 29.72in /  1006.3hPa ENE 6.0mph /  9.7km/h 12.0mph /  19.3km/h 84% 0.00in /  0mm
12:44 46.3 °F /  7.9 °C 41.7 °F /  5.4 °C 29.72in /  1006.3hPa NE 9.0mph /  14.5km/h 14.0mph /  22.5km/h 84% 0.00in /  0mm
12:49 45.9 °F /  7.7 °C 41.0 °F /  5 °C 29.72in /  1006.3hPa NE 8.0mph /  12.9km/h 18.0mph /  29km/h 83% 0.00in /  0mm
12:54 45.8 °F /  7.7 °C 40.9 °F /  4.9 °C 29.71in /  1006hPa ENE 11.0mph /  17.7km/h 15.0mph /  24.1km/h 83% 0.00in /  0mm
12:59 45.6 °F /  7.6 °C 41.0 °F /  5 °C 29.71in /  1006hPa NE 5.0mph /  8km/h 17.0mph /  27.4km/h 84% 0.00in /  0mm
13:04 45.9 °F /  7.7 °C 41.0 °F /  5 °C 29.71in /  1006hPa ESE 13.0mph /  20.9km/h 15.0mph /  24.1km/h 83% 0.00in /  0mm
13:09 46.0 °F /  7.8 °C 41.1 °F /  5.1 °C 29.70in /  1005.6hPa NE 8.0mph /  12.9km/h 16.0mph /  25.7km/h 83% 0.00in /  0mm
13:14 46.1 °F /  7.8 °C 40.9 °F /  4.9 °C 29.70in /  1005.6hPa NE 8.0mph /  12.9km/h 16.0mph /  25.7km/h 82% 0.00in /  0mm
13:19 46.0 °F /  7.8 °C 40.8 °F /  4.9 °C 29.70in /  1005.6hPa NE 8.0mph /  12.9km/h 17.0mph /  27.4km/h 82% 0.00in /  0mm
13:24 46.0 °F /  7.8 °C 40.8 °F /  4.9 °C 29.70in /  1005.6hPa ENE 8.0mph /  12.9km/h 17.0mph /  27.4km/h 82% 0.00in /  0mm
13:29 46.0 °F /  7.8 °C 41.1 °F /  5.1 °C 29.70in /  1005.6hPa ENE 8.0mph /  12.9km/h 14.0mph /  22.5km/h 83% 0.00in /  0mm
13:34 45.9 °F /  7.7 °C 41.0 °F /  5 °C 29.70in /  1005.6hPa ENE 7.0mph /  11.3km/h 13.0mph /  20.9km/h 83% 0.00in /  0mm
13:39 46.2 °F /  7.9 °C 41.3 °F /  5.2 °C 29.69in /  1005.3hPa NE 5.0mph /  8km/h 10.0mph /  16.1km/h 83% 0.00in /  0mm
13:44 45.9 °F /  7.7 °C 40.7 °F /  4.8 °C 29.69in /  1005.3hPa NNE 9.0mph /  14.5km/h 16.0mph /  25.7km/h 82% 0.00in /  0mm
13:49 45.8 °F /  7.7 °C 40.9 °F /  4.9 °C 29.69in /  1005.3hPa NE 6.0mph /  9.7km/h 14.0mph /  22.5km/h 83% 0.00in /  0mm
13:54 45.7 °F /  7.6 °C 40.5 °F /  4.7 °C 29.69in /  1005.3hPa ENE 11.0mph /  17.7km/h 20.0mph /  32.2km/h 82% 0.00in /  0mm
13:59 45.4 °F /  7.4 °C 40.2 °F /  4.6 °C 29.69in /  1005.3hPa ENE 4.0mph /  6.4km/h 17.0mph /  27.4km/h 82% 0.00in /  0mm
14:04 45.5 °F /  7.5 °C 40.3 °F /  4.6 °C 29.69in /  1005.3hPa East 11.0mph /  17.7km/h 16.0mph /  25.7km/h 82% 0.00in /  0mm
14:09 45.4 °F /  7.4 °C 40.2 °F /  4.6 °C 29.69in /  1005.3hPa SE 8.0mph /  12.9km/h 13.0mph /  20.9km/h 82% 0.00in /  0mm
14:14 45.0 °F /  7.2 °C 39.8 °F /  4.3 °C 29.68in /  1005hPa ENE 7.0mph /  11.3km/h 14.0mph /  22.5km/h 82% 0.00in /  0mm
14:19 44.6 °F /  7 °C 39.8 °F /  4.3 °C 29.69in /  1005.3hPa NE 7.0mph /  11.3km/h 17.0mph /  27.4km/h 83% 0.00in /  0mm
14:24 44.1 °F /  6.7 °C 39.3 °F /  4.1 °C 29.69in /  1005.3hPa NE 8.0mph /  12.9km/h 17.0mph /  27.4km/h 83% 0.00in /  0mm
14:29 43.8 °F /  6.6 °C 39.3 °F /  4.1 °C 29.69in /  1005.3hPa NE 8.0mph /  12.9km/h 16.0mph /  25.7km/h 84% 0.00in /  0mm
14:34 43.8 °F /  6.6 °C 39.3 °F /  4.1 °C 29.68in /  1005hPa ENE 6.0mph /  9.7km/h 11.0mph /  17.7km/h 84% 0.00in /  0mm
14:39 43.7 °F /  6.5 °C 39.2 °F /  4 °C 29.68in /  1005hPa ENE 7.0mph /  11.3km/h 15.0mph /  24.1km/h 84% 0.00in /  0mm
14:44 43.8 °F /  6.6 °C 39.0 °F /  3.9 °C 29.68in /  1005hPa ENE 8.0mph /  12.9km/h 15.0mph /  24.1km/h 83% 0.00in /  0mm
14:49 43.9 °F /  6.6 °C 39.1 °F /  3.9 °C 29.69in /  1005.3hPa NE 10.0mph /  16.1km/h 15.0mph /  24.1km/h 83% 0.00in /  0mm
14:54 44.2 °F /  6.8 °C 39.4 °F /  4.1 °C 29.69in /  1005.3hPa NE 7.0mph /  11.3km/h 14.0mph /  22.5km/h 83% 0.00in /  0mm
14:59 44.1 °F /  6.7 °C 39.3 °F /  4.1 °C 29.69in /  1005.3hPa NNE 6.0mph /  9.7km/h 15.0mph /  24.1km/h 83% 0.00in /  0mm
15:04 43.7 °F /  6.5 °C 38.9 °F /  3.8 °C 29.69in /  1005.3hPa NE 6.0mph /  9.7km/h 12.0mph /  19.3km/h 83% 0.00in /  0mm
15:09 43.4 °F /  6.3 °C 38.6 °F /  3.7 °C 29.69in /  1005.3hPa NE 4.0mph /  6.4km/h 11.0mph /  17.7km/h 83% 0.00in /  0mm
15:14 43.2 °F /  6.2 °C 38.4 °F /  3.6 °C 29.69in /  1005.3hPa NE 8.0mph /  12.9km/h 12.0mph /  19.3km/h 83% 0.00in /  0mm
15:19 43.1 °F /  6.2 °C 38.3 °F /  3.5 °C 29.69in /  1005.3hPa NE 7.0mph /  11.3km/h 13.0mph /  20.9km/h 83% 0.00in /  0mm
15:24 42.9 °F /  6.1 °C 38.1 °F /  3.4 °C 29.69in /  1005.3hPa NE 7.0mph /  11.3km/h 13.0mph /  20.9km/h 83% 0.00in /  0mm
15:29 42.8 °F /  6 °C 38.0 °F /  3.3 °C 29.69in /  1005.3hPa NE 7.0mph /  11.3km/h 13.0mph /  20.9km/h 83% 0.00in /  0mm
15:34 42.7 °F /  5.9 °C 37.9 °F /  3.3 °C 29.68in /  1005hPa NE 7.0mph /  11.3km/h 13.0mph /  20.9km/h 83% 0.00in /  0mm
15:39 42.6 °F /  5.9 °C 37.8 °F /  3.2 °C 29.69in /  1005.3hPa NE 8.0mph /  12.9km/h 13.0mph /  20.9km/h 83% 0.00in /  0mm
15:44 42.5 °F /  5.8 °C 37.7 °F /  3.2 °C 29.69in /  1005.3hPa NE 7.0mph /  11.3km/h 14.0mph /  22.5km/h 83% 0.00in /  0mm
15:49 42.4 °F /  5.8 °C 37.3 °F /  2.9 °C 29.69in /  1005.3hPa NNE 8.0mph /  12.9km/h 16.0mph /  25.7km/h 82% 0.00in /  0mm
15:54 42.3 °F /  5.7 °C 37.5 °F /  3.1 °C 29.69in /  1005.3hPa NE 8.0mph /  12.9km/h 15.0mph /  24.1km/h 83% 0.00in /  0mm
15:59 42.2 °F /  5.7 °C 37.1 °F /  2.8 °C 29.69in /  1005.3hPa NE 15.0mph /  24.1km/h 17.0mph /  27.4km/h 82% 0.00in /  0mm
16:04 41.9 °F /  5.5 °C 36.5 °F /  2.5 °C 29.69in /  1005.3hPa NE 5.0mph /  8km/h 18.0mph /  29km/h 81% 0.00in /  0mm
16:09 41.7 °F /  5.4 °C 36.6 °F /  2.6 °C 29.69in /  1005.3hPa ENE 13.0mph /  20.9km/h 18.0mph /  29km/h 82% 0.00in /  0mm
16:14 41.6 °F /  5.3 °C 36.5 °F /  2.5 °C 29.70in /  1005.6hPa NE 8.0mph /  12.9km/h 14.0mph /  22.5km/h 82% 0.00in /  0mm
16:19 41.5 °F /  5.3 °C 36.1 °F /  2.3 °C 29.70in /  1005.6hPa NE 9.0mph /  14.5km/h 20.0mph /  32.2km/h 81% 0.00in /  0mm
16:24 41.4 °F /  5.2 °C 36.0 °F /  2.2 °C 29.70in /  1005.6hPa NE 10.0mph /  16.1km/h 20.0mph /  32.2km/h 81% 0.00in /  0mm
16:29 41.3 °F /  5.2 °C 35.9 °F /  2.2 °C 29.70in /  1005.6hPa NE 9.0mph /  14.5km/h 18.0mph /  29km/h 81% 0.00in /  0mm
16:34 41.1 °F /  5.1 °C 35.7 °F /  2.1 °C 29.70in /  1005.6hPa NE 9.0mph /  14.5km/h 17.0mph /  27.4km/h 81% 0.00in /  0mm
16:39 40.9 °F /  4.9 °C 35.5 °F /  1.9 °C 29.70in /  1005.6hPa NE 9.0mph /  14.5km/h 17.0mph /  27.4km/h 81% 0.00in /  0mm
16:44 40.7 °F /  4.8 °C 35.0 °F /  1.7 °C 29.70in /  1005.6hPa NE 9.0mph /  14.5km/h 16.0mph /  25.7km/h 80% 0.00in /  0mm
16:49 40.6 °F /  4.8 °C 35.2 °F /  1.8 °C 29.71in /  1006hPa NNE 7.0mph /  11.3km/h 17.0mph /  27.4km/h 81% 0.00in /  0mm
16:54 40.5 °F /  4.7 °C 35.1 °F /  1.7 °C 29.71in /  1006hPa NE 9.0mph /  14.5km/h 18.0mph /  29km/h 81% 0.00in /  0mm
16:59 40.5 °F /  4.7 °C 35.1 °F /  1.7 °C 29.71in /  1006hPa ENE 13.0mph /  20.9km/h 14.0mph /  22.5km/h 81% 0.00in /  0mm
17:04 40.4 °F /  4.7 °C 34.7 °F /  1.5 °C 29.71in /  1006hPa ENE 12.0mph /  19.3km/h 14.0mph /  22.5km/h 80% 0.00in /  0mm
17:09 40.2 °F /  4.6 °C 34.5 °F /  1.4 °C 29.71in /  1006hPa NE 13.0mph /  20.9km/h 18.0mph /  29km/h 80% 0.00in /  0mm
17:14 40.1 °F /  4.5 °C 34.4 °F /  1.3 °C 29.72in /  1006.3hPa NE 4.0mph /  6.4km/h 17.0mph /  27.4km/h 80% 0.00in /  0mm
17:19 39.9 °F /  4.4 °C 34.2 °F /  1.2 °C 29.72in /  1006.3hPa NE 8.0mph /  12.9km/h 17.0mph /  27.4km/h 80% 0.00in /  0mm
17:24 39.8 °F /  4.3 °C 34.1 °F /  1.2 °C 29.73in /  1006.7hPa NE 9.0mph /  14.5km/h 17.0mph /  27.4km/h 80% 0.00in /  0mm
17:29 39.7 °F /  4.3 °C 34.0 °F /  1.1 °C 29.73in /  1006.7hPa NE 8.0mph /  12.9km/h 17.0mph /  27.4km/h 80% 0.00in /  0mm
17:34 39.6 °F /  4.2 °C 33.9 °F /  1.1 °C 29.74in /  1007hPa ENE 8.0mph /  12.9km/h 16.0mph /  25.7km/h 80% 0.00in /  0mm
17:39 39.5 °F /  4.2 °C 33.8 °F /  1 °C 29.74in /  1007hPa NE 8.0mph /  12.9km/h 16.0mph /  25.7km/h 80% 0.00in /  0mm
17:44 39.3 °F /  4.1 °C 33.6 °F /  0.9 °C 29.74in /  1007hPa ENE 8.0mph /  12.9km/h 12.0mph /  19.3km/h 80% 0.00in /  0mm
17:49 39.1 °F /  3.9 °C 33.5 °F /  0.8 °C 29.74in /  1007hPa NE 6.0mph /  9.7km/h 12.0mph /  19.3km/h 80% 0.00in /  0mm
17:54 39.0 °F /  3.9 °C 33.4 °F /  0.8 °C 29.74in /  1007hPa NE 8.0mph /  12.9km/h 15.0mph /  24.1km/h 80% 0.00in /  0mm
17:59 38.9 °F /  3.8 °C 33.3 °F /  0.7 °C 29.75in /  1007.3hPa ENE 12.0mph /  19.3km/h 15.0mph /  24.1km/h 80% 0.00in /  0mm
18:04 38.8 °F /  3.8 °C 33.2 °F /  0.7 °C 29.75in /  1007.3hPa NNE 9.0mph /  14.5km/h 14.0mph /  22.5km/h 80% 0.00in /  0mm
18:09 38.8 °F /  3.8 °C 33.2 °F /  0.7 °C 29.75in /  1007.3hPa East 14.0mph /  22.5km/h 14.0mph /  22.5km/h 80% 0.00in /  0mm
18:14 38.8 °F /  3.8 °C 33.2 °F /  0.7 °C 29.75in /  1007.3hPa NNE 4.0mph /  6.4km/h 14.0mph /  22.5km/h 80% 0.00in /  0mm
18:19 38.7 °F /  3.7 °C 33.1 °F /  0.6 °C 29.75in /  1007.3hPa NE 8.0mph /  12.9km/h 13.0mph /  20.9km/h 80% 0.00in /  0mm
18:24 38.7 °F /  3.7 °C 33.1 °F /  0.6 °C 29.75in /  1007.3hPa NE 8.0mph /  12.9km/h 15.0mph /  24.1km/h 80% 0.00in /  0mm
18:29 38.7 °F /  3.7 °C 33.1 °F /  0.6 °C 29.75in /  1007.3hPa NE 8.0mph /  12.9km/h 15.0mph /  24.1km/h 80% 0.00in /  0mm
18:34 38.6 °F /  3.7 °C 33.0 °F /  0.6 °C 29.75in /  1007.3hPa NE 8.0mph /  12.9km/h 15.0mph /  24.1km/h 80% 0.00in /  0mm
18:39 38.6 °F /  3.7 °C 32.6 °F /  0.3 °C 29.75in /  1007.3hPa NE 8.0mph /  12.9km/h 15.0mph /  24.1km/h 79% 0.00in /  0mm
18:44 38.5 °F /  3.6 °C 32.6 °F /  0.3 °C 29.75in /  1007.3hPa ENE 7.0mph /  11.3km/h 13.0mph /  20.9km/h 79% 0.00in /  0mm
18:49 38.5 °F /  3.6 °C 32.6 °F /  0.3 °C 29.75in /  1007.3hPa ENE 4.0mph /  6.4km/h 10.0mph /  16.1km/h 79% 0.00in /  0mm
18:54 38.4 °F /  3.6 °C 32.5 °F /  0.3 °C 29.76in /  1007.7hPa NE 5.0mph /  8km/h 10.0mph /  16.1km/h 79% 0.00in /  0mm
18:59 38.3 °F /  3.5 °C 32.0 °F /  0 °C 29.76in /  1007.7hPa NE 5.0mph /  8km/h 11.0mph /  17.7km/h 78% 0.00in /  0mm
19:04 38.2 °F /  3.4 °C 31.9 °F /  -0.1 °C 29.76in /  1007.7hPa NNE 7.0mph /  11.3km/h 12.0mph /  19.3km/h 78% 0.00in /  0mm
19:09 38.2 °F /  3.4 °C 31.6 °F /  -0.2 °C 29.76in /  1007.7hPa ESE 7.0mph /  11.3km/h 11.0mph /  17.7km/h 77% 0.00in /  0mm
19:14 38.0 °F /  3.3 °C 31.4 °F /  -0.3 °C 29.76in /  1007.7hPa ENE 7.0mph /  11.3km/h 16.0mph /  25.7km/h 77% 0.00in /  0mm
19:19 37.9 °F /  3.3 °C 31.0 °F /  -0.6 °C 29.76in /  1007.7hPa ENE 13.0mph /  20.9km/h 15.0mph /  24.1km/h 76% 0.00in /  0mm
19:24 37.8 °F /  3.2 °C 30.9 °F /  -0.6 °C 29.76in /  1007.7hPa NE 6.0mph /  9.7km/h 14.0mph /  22.5km/h 76% 0.00in /  0mm
19:29 37.7 °F /  3.2 °C 31.1 °F /  -0.5 °C 29.77in /  1008hPa ENE 7.0mph /  11.3km/h 15.0mph /  24.1km/h 77% 0.00in /  0mm
19:34 37.6 °F /  3.1 °C 31.0 °F /  -0.6 °C 29.76in /  1007.7hPa ENE 7.0mph /  11.3km/h 13.0mph /  20.9km/h 77% 0.00in /  0mm
19:39 37.5 °F /  3.1 °C 30.9 °F /  -0.6 °C 29.77in /  1008hPa ENE 7.0mph /  11.3km/h 16.0mph /  25.7km/h 77% 0.00in /  0mm
19:44 37.4 °F /  3 °C 30.8 °F /  -0.7 °C 29.76in /  1007.7hPa NE 8.0mph /  12.9km/h 10.0mph /  16.1km/h 77% 0.00in /  0mm
19:49 37.3 °F /  2.9 °C 30.7 °F /  -0.7 °C 29.76in /  1007.7hPa ENE 4.0mph /  6.4km/h 15.0mph /  24.1km/h 77% 0.00in /  0mm
19:54 37.2 °F /  2.9 °C 30.7 °F /  -0.7 °C 29.76in /  1007.7hPa East 6.0mph /  9.7km/h 10.0mph /  16.1km/h 77% 0.00in /  0mm
19:59 37.1 °F /  2.8 °C 30.6 °F /  -0.8 °C 29.76in /  1007.7hPa ENE 6.0mph /  9.7km/h 12.0mph /  19.3km/h 77% 0.00in /  0mm
20:04 37.1 °F /  2.8 °C 30.6 °F /  -0.8 °C 29.75in /  1007.3hPa NNE 10.0mph /  16.1km/h 15.0mph /  24.1km/h 77% 0.00in /  0mm
20:09 37.0 °F /  2.8 °C 30.5 °F /  -0.8 °C 29.75in /  1007.3hPa ENE 9.0mph /  14.5km/h 15.0mph /  24.1km/h 77% 0.00in /  0mm
20:14 36.9 °F /  2.7 °C 30.7 °F /  -0.7 °C 29.75in /  1007.3hPa ENE 9.0mph /  14.5km/h 12.0mph /  19.3km/h 78% 0.00in /  0mm
20:19 36.8 °F /  2.7 °C 30.6 °F /  -0.8 °C 29.75in /  1007.3hPa East 5.0mph /  8km/h 9.0mph /  14.5km/h 78% 0.00in /  0mm
20:24 36.7 °F /  2.6 °C 30.5 °F /  -0.8 °C 29.74in /  1007hPa NE 6.0mph /  9.7km/h 11.0mph /  17.7km/h 78% 0.00in /  0mm
20:29 36.6 °F /  2.6 °C 30.7 °F /  -0.7 °C 29.74in /  1007hPa NE 7.0mph /  11.3km/h 15.0mph /  24.1km/h 79% 0.00in /  0mm
20:34 36.4 °F /  2.4 °C 30.5 °F /  -0.8 °C 29.73in /  1006.7hPa NE 7.0mph /  11.3km/h 15.0mph /  24.1km/h 79% 0.00in /  0mm
20:39 36.1 °F /  2.3 °C 29.9 °F /  -1.2 °C 29.74in /  1007hPa NE 7.0mph /  11.3km/h 15.0mph /  24.1km/h 78% 0.00in /  0mm
20:44 36.0 °F /  2.2 °C 29.8 °F /  -1.2 °C 29.74in /  1007hPa NE 7.0mph /  11.3km/h 14.0mph /  22.5km/h 78% 0.00in /  0mm
20:49 35.9 °F /  2.2 °C 29.7 °F /  -1.3 °C 29.74in /  1007hPa NE 5.0mph /  8km/h 13.0mph /  20.9km/h 78% 0.00in /  0mm
20:54 35.8 °F /  2.1 °C 29.6 °F /  -1.3 °C 29.74in /  1007hPa NE 13.0mph /  20.9km/h 13.0mph /  20.9km/h 78% 0.00in /  0mm
20:59 35.7 °F /  2.1 °C 29.5 °F /  -1.4 °C 29.74in /  1007hPa ENE 7.0mph /  11.3km/h 17.0mph /  27.4km/h 78% 0.00in /  0mm
21:04 35.6 °F /  2 °C 29.4 °F /  -1.4 °C 29.73in /  1006.7hPa NE 7.0mph /  11.3km/h 17.0mph /  27.4km/h 78% 0.00in /  0mm
21:09 35.5 °F /  1.9 °C 29.3 °F /  -1.5 °C 29.73in /  1006.7hPa NE 5.0mph /  8km/h 11.0mph /  17.7km/h 78% 0.00in /  0mm
21:14 35.4 °F /  1.9 °C 29.2 °F /  -1.6 °C 29.73in /  1006.7hPa NE 4.0mph /  6.4km/h 13.0mph /  20.9km/h 78% 0.00in /  0mm
21:19 35.4 °F /  1.9 °C 29.2 °F /  -1.6 °C 29.73in /  1006.7hPa NE 8.0mph /  12.9km/h 13.0mph /  20.9km/h 78% 0.00in /  0mm
21:24 35.3 °F /  1.8 °C 29.1 °F /  -1.6 °C 29.73in /  1006.7hPa ENE 10.0mph /  16.1km/h 14.0mph /  22.5km/h 78% 0.00in /  0mm
21:29 35.3 °F /  1.8 °C 29.1 °F /  -1.6 °C 29.73in /  1006.7hPa NE 6.0mph /  9.7km/h 15.0mph /  24.1km/h 78% 0.00in /  0mm
21:34 35.2 °F /  1.8 °C 29.0 °F /  -1.7 °C 29.73in /  1006.7hPa ENE 7.0mph /  11.3km/h 16.0mph /  25.7km/h 78% 0.00in /  0mm
21:39 35.2 °F /  1.8 °C 29.0 °F /  -1.7 °C 29.73in /  1006.7hPa ENE 6.0mph /  9.7km/h 16.0mph /  25.7km/h 78% 0.00in /  0mm
21:44 35.2 °F /  1.8 °C 29.0 °F /  -1.7 °C 29.73in /  1006.7hPa ENE 6.0mph /  9.7km/h 14.0mph /  22.5km/h 78% 0.00in /  0mm
21:49 35.2 °F /  1.8 °C 29.0 °F /  -1.7 °C 29.74in /  1007hPa NE 5.0mph /  8km/h 17.0mph /  27.4km/h 78% 0.00in /  0mm
21:54 35.2 °F /  1.8 °C 29.0 °F /  -1.7 °C 29.74in /  1007hPa ENE 10.0mph /  16.1km/h 10.0mph /  16.1km/h 78% 0.00in /  0mm
21:59 35.2 °F /  1.8 °C 29.0 °F /  -1.7 °C 29.74in /  1007hPa NNE 5.0mph /  8km/h 13.0mph /  20.9km/h 78% 0.00in /  0mm
22:04 35.1 °F /  1.7 °C 28.9 °F /  -1.7 °C 29.74in /  1007hPa ENE 5.0mph /  8km/h 7.0mph /  11.3km/h 78% 0.00in /  0mm
22:09 35.1 °F /  1.7 °C 28.9 °F /  -1.7 °C 29.73in /  1006.7hPa ENE 11.0mph /  17.7km/h 15.0mph /  24.1km/h 78% 0.00in /  0mm
22:14 35.1 °F /  1.7 °C 28.9 °F /  -1.7 °C 29.74in /  1007hPa ENE 4.0mph /  6.4km/h 13.0mph /  20.9km/h 78% 0.00in /  0mm
22:19 35.1 °F /  1.7 °C 28.9 °F /  -1.7 °C 29.73in /  1006.7hPa ENE 10.0mph /  16.1km/h 13.0mph /  20.9km/h 78% 0.00in /  0mm
22:24 35.1 °F /  1.7 °C 28.9 °F /  -1.7 °C 29.72in /  1006.3hPa NE 10.0mph /  16.1km/h 12.0mph /  19.3km/h 78% 0.00in /  0mm
22:29 35.0 °F /  1.7 °C 28.5 °F /  -1.9 °C 29.72in /  1006.3hPa NE 7.0mph /  11.3km/h 16.0mph /  25.7km/h 77% 0.00in /  0mm
22:34 35.0 °F /  1.7 °C 28.5 °F /  -1.9 °C 29.73in /  1006.7hPa NE 8.0mph /  12.9km/h 16.0mph /  25.7km/h 77% 0.00in /  0mm
22:39 34.9 °F /  1.6 °C 28.4 °F /  -2 °C 29.73in /  1006.7hPa NE 3.0mph /  4.8km/h 11.0mph /  17.7km/h 77% 0.00in /  0mm
22:49 34.8 °F /  1.6 °C 28.6 °F /  -1.9 °C 29.73in /  1006.7hPa NNE 10.0mph /  16.1km/h 10.0mph /  16.1km/h 78% 0.00in /  0mm
22:54 34.7 °F /  1.5 °C 28.5 °F /  -1.9 °C 29.73in /  1006.7hPa NE 6.0mph /  9.7km/h 13.0mph /  20.9km/h 78% 0.00in /  0mm
22:59 34.7 °F /  1.5 °C 28.5 °F /  -1.9 °C 29.73in /  1006.7hPa NE 6.0mph /  9.7km/h 13.0mph /  20.9km/h 78% 0.00in /  0mm
23:04 34.6 °F /  1.4 °C 28.4 °F /  -2 °C 29.73in /  1006.7hPa NE 7.0mph /  11.3km/h 13.0mph /  20.9km/h 78% 0.00in /  0mm
23:09 34.6 °F /  1.4 °C 28.4 °F /  -2 °C 29.73in /  1006.7hPa NE 10.0mph /  16.1km/h 16.0mph /  25.7km/h 78% 0.00in /  0mm
23:14 34.6 °F /  1.4 °C 28.4 °F /  -2 °C 29.72in /  1006.3hPa ENE 8.0mph /  12.9km/h 13.0mph /  20.9km/h 78% 0.00in /  0mm
23:19 34.6 °F /  1.4 °C 28.1 °F /  -2.2 °C 29.73in /  1006.7hPa NE 4.0mph /  6.4km/h 14.0mph /  22.5km/h 77% 0.00in /  0mm
23:24 34.6 °F /  1.4 °C 28.1 °F /  -2.2 °C 29.72in /  1006.3hPa NE 4.0mph /  6.4km/h 15.0mph /  24.1km/h 77% 0.00in /  0mm
23:29 34.6 °F /  1.4 °C 28.1 °F /  -2.2 °C 29.72in /  1006.3hPa NNE 6.0mph /  9.7km/h 16.0mph /  25.7km/h 77% 0.00in /  0mm
23:34 34.5 °F /  1.4 °C 28.3 °F /  -2.1 °C 29.72in /  1006.3hPa NE 7.0mph /  11.3km/h 16.0mph /  25.7km/h 78% 0.00in /  0mm
23:39 34.4 °F /  1.3 °C 28.2 °F /  -2.1 °C 29.72in /  1006.3hPa NE 7.0mph /  11.3km/h 14.0mph /  22.5km/h 78% 0.00in /  0mm
23:44 34.4 °F /  1.3 °C 28.2 °F /  -2.1 °C 29.72in /  1006.3hPa NE 7.0mph /  11.3km/h 12.0mph /  19.3km/h 78% 0.00in /  0mm
23:49 34.4 °F /  1.3 °C 28.2 °F /  -2.1 °C 29.72in /  1006.3hPa NE 6.0mph /  9.7km/h 12.0mph /  19.3km/h 78% 0.00in /  0mm
23:54 34.4 °F /  1.3 °C 28.2 °F /  -2.1 °C 29.72in /  1006.3hPa ENE 5.0mph /  8km/h 10.0mph /  16.1km/h 78% 0.00in /  0mm
23:59 34.4 °F /  1.3 °C 28.2 °F /  -2.1 °C 29.73in /  1006.7hPa ENE 7.0mph /  11.3km/h 11.0mph /  17.7km/h 78% 0.00in /  0mm
Buffalo, New York, USA
Compliments of Weather Underground - 2.5 mb